sensor_id;sensor_type;location;lat;lon;timestamp;temperature;humidity
42489;DHT22;28118;52.388;9.452;2022-08-19T00:00:26;18.90;99.90
42489;DHT22;28118;52.388;9.452;2022-08-19T00:02:54;18.90;99.90
42489;DHT22;28118;52.388;9.452;2022-08-19T00:05:22;18.90;99.90
42489;DHT22;28118;52.388;9.452;2022-08-19T00:07:49;18.90;99.90
42489;DHT22;28118;52.388;9.452;2022-08-19T00:10:17;18.90;99.90
42489;DHT22;28118;52.388;9.452;2022-08-19T00:12:45;18.90;99.90
42489;DHT22;28118;52.388;9.452;2022-08-19T00:15:16;18.90;99.90
42489;DHT22;28118;52.388;9.452;2022-08-19T00:17:44;18.90;99.90
42489;DHT22;28118;52.388;9.452;2022-08-19T00:20:13;18.80;99.90
42489;DHT22;28118;52.388;9.452;2022-08-19T00:22:44;18.80;99.90
42489;DHT22;28118;52.388;9.452;2022-08-19T00:25:11;18.80;99.90
42489;DHT22;28118;52.388;9.452;2022-08-19T00:27:41;18.80;99.90
42489;DHT22;28118;52.388;9.452;2022-08-19T00:30:08;18.80;99.90
42489;DHT22;28118;52.388;9.452;2022-08-19T00:32:37;18.80;99.90
42489;DHT22;28118;52.388;9.452;2022-08-19T00:35:05;18.70;99.90
42489;DHT22;28118;52.388;9.452;2022-08-19T00:37:32;18.60;99.90
42489;DHT22;28118;52.388;9.452;2022-08-19T00:40:04;18.50;99.90
42489;DHT22;28118;52.388;9.452;2022-08-19T00:42:31;18.50;99.90
42489;DHT22;28118;52.388;9.452;2022-08-19T00:44:58;18.50;99.90
42489;DHT22;28118;52.388;9.452;2022-08-19T00:47:25;18.50;99.90
42489;DHT22;28118;52.388;9.452;2022-08-19T00:49:56;18.50;99.90
42489;DHT22;28118;52.388;9.452;2022-08-19T00:52:33;18.40;99.90
42489;DHT22;28118;52.388;9.452;2022-08-19T00:55:05;18.30;99.90
42489;DHT22;28118;52.388;9.452;2022-08-19T00:57:36;18.20;99.90
42489;DHT22;28118;52.388;9.452;2022-08-19T01:00:08;18.20;99.90
42489;DHT22;28118;52.388;9.452;2022-08-19T01:02:38;18.30;99.90
42489;DHT22;28118;52.388;9.452;2022-08-19T01:05:08;18.20;99.90
42489;DHT22;28118;52.388;9.452;2022-08-19T01:07:35;18.30;99.90
42489;DHT22;28118;52.388;9.452;2022-08-19T01:10:06;18.20;99.90
42489;DHT22;28118;52.388;9.452;2022-08-19T01:12:33;18.20;99.90
42489;DHT22;28118;52.388;9.452;2022-08-19T01:15:01;18.20;99.90
42489;DHT22;28118;52.388;9.452;2022-08-19T01:17:27;18.10;99.90
42489;DHT22;28118;52.388;9.452;2022-08-19T01:19:54;18.00;99.90
42489;DHT22;28118;52.388;9.452;2022-08-19T01:24:59;18.10;99.90
42489;DHT22;28118;52.388;9.452;2022-08-19T01:27:26;18.00;99.90
42489;DHT22;28118;52.388;9.452;2022-08-19T01:30:11;18.00;99.90
42489;DHT22;28118;52.388;9.452;2022-08-19T01:32:38;17.90;99.90
42489;DHT22;28118;52.388;9.452;2022-08-19T01:35:05;17.90;99.90
42489;DHT22;28118;52.388;9.452;2022-08-19T01:37:43;18.00;99.90
42489;DHT22;28118;52.388;9.452;2022-08-19T01:40:10;18.00;99.90
42489;DHT22;28118;52.388;9.452;2022-08-19T01:42:37;17.90;99.90
42489;DHT22;28118;52.388;9.452;2022-08-19T01:45:05;17.90;99.90
42489;DHT22;28118;52.388;9.452;2022-08-19T01:47:37;17.90;99.90
42489;DHT22;28118;52.388;9.452;2022-08-19T01:50:07;17.90;99.90
42489;DHT22;28118;52.388;9.452;2022-08-19T01:52:36;17.80;99.90
42489;DHT22;28118;52.388;9.452;2022-08-19T01:55:04;17.90;99.90
42489;DHT22;28118;52.388;9.452;2022-08-19T01:57:31;17.80;99.90
42489;DHT22;28118;52.388;9.452;2022-08-19T01:59:59;17.90;99.90
42489;DHT22;28118;52.388;9.452;2022-08-19T02:02:26;17.90;99.90
42489;DHT22;28118;52.388;9.452;2022-08-19T02:04:53;17.90;99.90
42489;DHT22;28118;52.388;9.452;2022-08-19T02:07:20;17.80;99.90
42489;DHT22;28118;52.388;9.452;2022-08-19T02:09:50;17.90;99.90
42489;DHT22;28118;52.388;9.452;2022-08-19T02:12:17;17.80;99.90
42489;DHT22;28118;52.388;9.452;2022-08-19T02:14:43;17.90;99.90
42489;DHT22;28118;52.388;9.452;2022-08-19T02:17:10;17.80;99.90
42489;DHT22;28118;52.388;9.452;2022-08-19T02:19:37;17.80;99.90
42489;DHT22;28118;52.388;9.452;2022-08-19T02:22:06;17.70;99.90
42489;DHT22;28118;52.388;9.452;2022-08-19T02:24:33;17.70;99.90
42489;DHT22;28118;52.388;9.452;2022-08-19T02:27:00;17.70;99.90
42489;DHT22;28118;52.388;9.452;2022-08-19T02:29:27;17.70;99.90
42489;DHT22;28118;52.388;9.452;2022-08-19T02:31:54;17.70;99.90
42489;DHT22;28118;52.388;9.452;2022-08-19T02:34:20;17.70;99.90
42489;DHT22;28118;52.388;9.452;2022-08-19T02:36:47;17.80;99.90
42489;DHT22;28118;52.388;9.452;2022-08-19T02:39:18;17.80;99.90
42489;DHT22;28118;52.388;9.452;2022-08-19T02:41:45;17.80;99.90
42489;DHT22;28118;52.388;9.452;2022-08-19T02:44:12;17.80;99.90
42489;DHT22;28118;52.388;9.452;2022-08-19T02:46:56;17.80;99.90
42489;DHT22;28118;52.388;9.452;2022-08-19T02:49:23;17.80;99.90
42489;DHT22;28118;52.388;9.452;2022-08-19T02:51:50;17.80;99.90
42489;DHT22;28118;52.388;9.452;2022-08-19T02:54:17;17.80;99.90
42489;DHT22;28118;52.388;9.452;2022-08-19T02:56:44;17.70;99.90
42489;DHT22;28118;52.388;9.452;2022-08-19T02:59:11;17.70;99.90
42489;DHT22;28118;52.388;9.452;2022-08-19T03:01:40;17.70;99.90
42489;DHT22;28118;52.388;9.452;2022-08-19T03:04:10;17.70;99.90
42489;DHT22;28118;52.388;9.452;2022-08-19T03:06:39;17.60;99.90
42489;DHT22;28118;52.388;9.452;2022-08-19T03:09:06;17.60;99.90
42489;DHT22;28118;52.388;9.452;2022-08-19T03:11:33;17.60;99.90
42489;DHT22;28118;52.388;9.452;2022-08-19T03:14:01;17.50;99.90
42489;DHT22;28118;52.388;9.452;2022-08-19T03:16:30;17.50;99.90
42489;DHT22;28118;52.388;9.452;2022-08-19T03:19:00;17.50;99.90
42489;DHT22;28118;52.388;9.452;2022-08-19T03:21:30;17.40;99.90
42489;DHT22;28118;52.388;9.452;2022-08-19T03:23:59;17.50;99.90
42489;DHT22;28118;52.388;9.452;2022-08-19T03:26:26;17.40;99.90
42489;DHT22;28118;52.388;9.452;2022-08-19T03:28:53;17.40;99.90
42489;DHT22;28118;52.388;9.452;2022-08-19T03:31:25;17.40;99.90
42489;DHT22;28118;52.388;9.452;2022-08-19T03:34:14;17.40;99.90
42489;DHT22;28118;52.388;9.452;2022-08-19T03:36:41;17.40;99.90
42489;DHT22;28118;52.388;9.452;2022-08-19T03:39:09;17.30;99.90
42489;DHT22;28118;52.388;9.452;2022-08-19T03:41:38;17.30;99.90
42489;DHT22;28118;52.388;9.452;2022-08-19T03:44:12;17.30;99.90
42489;DHT22;28118;52.388;9.452;2022-08-19T03:46:44;17.30;99.90
42489;DHT22;28118;52.388;9.452;2022-08-19T03:49:11;17.30;99.90
42489;DHT22;28118;52.388;9.452;2022-08-19T03:51:41;17.30;99.90
42489;DHT22;28118;52.388;9.452;2022-08-19T03:54:10;17.30;99.90
42489;DHT22;28118;52.388;9.452;2022-08-19T03:56:39;17.30;99.90
42489;DHT22;28118;52.388;9.452;2022-08-19T03:59:08;17.30;99.90
42489;DHT22;28118;52.388;9.452;2022-08-19T04:01:35;17.20;99.90
42489;DHT22;28118;52.388;9.452;2022-08-19T04:04:03;17.20;99.90
42489;DHT22;28118;52.388;9.452;2022-08-19T04:06:33;17.10;99.90
42489;DHT22;28118;52.388;9.452;2022-08-19T04:09:07;17.10;99.90
42489;DHT22;28118;52.388;9.452;2022-08-19T04:11:37;17.10;99.90
42489;DHT22;28118;52.388;9.452;2022-08-19T04:14:12;17.10;99.90
42489;DHT22;28118;52.388;9.452;2022-08-19T04:16:39;17.00;99.90
42489;DHT22;28118;52.388;9.452;2022-08-19T04:19:07;17.00;99.90
42489;DHT22;28118;52.388;9.452;2022-08-19T04:21:34;17.00;99.90
42489;DHT22;28118;52.388;9.452;2022-08-19T04:24:02;16.90;99.90
42489;DHT22;28118;52.388;9.452;2022-08-19T04:26:32;16.90;99.90
42489;DHT22;28118;52.388;9.452;2022-08-19T04:29:01;17.00;99.90
42489;DHT22;28118;52.388;9.452;2022-08-19T04:31:31;17.00;99.90
42489;DHT22;28118;52.388;9.452;2022-08-19T04:34:05;17.00;99.90
42489;DHT22;28118;52.388;9.452;2022-08-19T04:36:34;17.00;99.90
42489;DHT22;28118;52.388;9.452;2022-08-19T04:39:19;17.00;99.90
42489;DHT22;28118;52.388;9.452;2022-08-19T04:41:46;17.00;99.90
42489;DHT22;28118;52.388;9.452;2022-08-19T04:44:33;17.10;99.90
42489;DHT22;28118;52.388;9.452;2022-08-19T04:47:02;17.10;99.90
42489;DHT22;28118;52.388;9.452;2022-08-19T04:49:37;17.10;99.90
42489;DHT22;28118;52.388;9.452;2022-08-19T04:52:03;17.10;99.90
42489;DHT22;28118;52.388;9.452;2022-08-19T04:54:30;17.10;99.90
42489;DHT22;28118;52.388;9.452;2022-08-19T04:57:08;17.00;99.90
42489;DHT22;28118;52.388;9.452;2022-08-19T04:59:38;17.00;99.90
42489;DHT22;28118;52.388;9.452;2022-08-19T05:02:07;16.90;99.90
42489;DHT22;28118;52.388;9.452;2022-08-19T05:04:35;16.90;99.90
42489;DHT22;28118;52.388;9.452;2022-08-19T05:07:06;16.90;99.90
42489;DHT22;28118;52.388;9.452;2022-08-19T05:09:34;16.90;99.90
42489;DHT22;28118;52.388;9.452;2022-08-19T05:12:21;17.00;99.90
42489;DHT22;28118;52.388;9.452;2022-08-19T05:14:52;17.00;99.90
42489;DHT22;28118;52.388;9.452;2022-08-19T05:17:18;16.90;99.90
42489;DHT22;28118;52.388;9.452;2022-08-19T05:19:56;17.00;99.90
42489;DHT22;28118;52.388;9.452;2022-08-19T05:22:43;17.00;99.90
42489;DHT22;28118;52.388;9.452;2022-08-19T05:25:14;17.00;99.90
42489;DHT22;28118;52.388;9.452;2022-08-19T05:27:42;16.90;99.90
42489;DHT22;28118;52.388;9.452;2022-08-19T05:30:10;16.90;99.90
42489;DHT22;28118;52.388;9.452;2022-08-19T05:32:39;17.00;99.90
42489;DHT22;28118;52.388;9.452;2022-08-19T05:35:06;17.10;99.90
42489;DHT22;28118;52.388;9.452;2022-08-19T05:37:33;17.10;99.90
42489;DHT22;28118;52.388;9.452;2022-08-19T05:40:00;17.20;99.90
42489;DHT22;28118;52.388;9.452;2022-08-19T05:42:31;17.30;99.90
42489;DHT22;28118;52.388;9.452;2022-08-19T05:44:58;17.40;99.90
42489;DHT22;28118;52.388;9.452;2022-08-19T05:47:24;17.40;99.90
42489;DHT22;28118;52.388;9.452;2022-08-19T05:49:51;17.40;99.90
42489;DHT22;28118;52.388;9.452;2022-08-19T05:52:18;17.40;99.90
42489;DHT22;28118;52.388;9.452;2022-08-19T05:54:52;17.50;99.90
42489;DHT22;28118;52.388;9.452;2022-08-19T05:57:23;17.50;99.90
42489;DHT22;28118;52.388;9.452;2022-08-19T05:59:50;17.50;99.90
42489;DHT22;28118;52.388;9.452;2022-08-19T06:02:25;17.40;99.90
42489;DHT22;28118;52.388;9.452;2022-08-19T06:04:52;17.40;99.90
42489;DHT22;28118;52.388;9.452;2022-08-19T06:07:19;17.40;99.90
42489;DHT22;28118;52.388;9.452;2022-08-19T06:09:45;17.40;99.90
42489;DHT22;28118;52.388;9.452;2022-08-19T06:12:29;17.40;99.90
42489;DHT22;28118;52.388;9.452;2022-08-19T06:15:09;17.50;99.90
42489;DHT22;28118;52.388;9.452;2022-08-19T06:17:36;17.60;99.90
42489;DHT22;28118;52.388;9.452;2022-08-19T06:20:05;17.60;99.90
42489;DHT22;28118;52.388;9.452;2022-08-19T06:22:41;17.70;99.90
42489;DHT22;28118;52.388;9.452;2022-08-19T06:25:08;17.70;99.90
42489;DHT22;28118;52.388;9.452;2022-08-19T06:27:38;17.90;99.90
42489;DHT22;28118;52.388;9.452;2022-08-19T06:30:19;18.00;99.90
42489;DHT22;28118;52.388;9.452;2022-08-19T06:32:45;17.90;99.90
42489;DHT22;28118;52.388;9.452;2022-08-19T06:35:12;17.80;99.90
42489;DHT22;28118;52.388;9.452;2022-08-19T06:37:40;17.90;99.90
42489;DHT22;28118;52.388;9.452;2022-08-19T06:40:10;17.90;99.90
42489;DHT22;28118;52.388;9.452;2022-08-19T06:42:39;17.80;99.90
42489;DHT22;28118;52.388;9.452;2022-08-19T06:45:21;17.90;99.90
42489;DHT22;28118;52.388;9.452;2022-08-19T06:47:51;18.10;99.90
42489;DHT22;28118;52.388;9.452;2022-08-19T06:50:23;18.20;99.90
42489;DHT22;28118;52.388;9.452;2022-08-19T06:52:51;18.20;99.90
42489;DHT22;28118;52.388;9.452;2022-08-19T06:55:18;18.20;99.90
42489;DHT22;28118;52.388;9.452;2022-08-19T06:57:46;18.30;99.90
42489;DHT22;28118;52.388;9.452;2022-08-19T07:00:13;18.50;99.90
42489;DHT22;28118;52.388;9.452;2022-08-19T07:02:41;18.50;99.90
42489;DHT22;28118;52.388;9.452;2022-08-19T07:05:21;18.70;99.90
42489;DHT22;28118;52.388;9.452;2022-08-19T07:07:48;18.90;99.90
42489;DHT22;28118;52.388;9.452;2022-08-19T07:10:16;18.80;99.90
42489;DHT22;28118;52.388;9.452;2022-08-19T07:12:43;19.00;99.90
42489;DHT22;28118;52.388;9.452;2022-08-19T07:15:13;19.20;99.90
42489;DHT22;28118;52.388;9.452;2022-08-19T07:17:40;19.10;99.90
42489;DHT22;28118;52.388;9.452;2022-08-19T07:20:08;19.40;99.90
42489;DHT22;28118;52.388;9.452;2022-08-19T07:22:39;19.60;99.90
42489;DHT22;28118;52.388;9.452;2022-08-19T07:25:07;19.80;99.90
42489;DHT22;28118;52.388;9.452;2022-08-19T07:27:34;19.70;99.90
42489;DHT22;28118;52.388;9.452;2022-08-19T07:30:01;19.80;99.90
42489;DHT22;28118;52.388;9.452;2022-08-19T07:32:28;19.90;99.90
42489;DHT22;28118;52.388;9.452;2022-08-19T07:34:55;19.80;99.90
42489;DHT22;28118;52.388;9.452;2022-08-19T07:37:24;19.70;99.90
42489;DHT22;28118;52.388;9.452;2022-08-19T07:39:59;19.70;99.90
42489;DHT22;28118;52.388;9.452;2022-08-19T07:42:26;19.60;99.90
42489;DHT22;28118;52.388;9.452;2022-08-19T07:44:55;19.70;99.90
42489;DHT22;28118;52.388;9.452;2022-08-19T07:47:22;19.80;99.90
42489;DHT22;28118;52.388;9.452;2022-08-19T07:50:10;19.80;99.90
42489;DHT22;28118;52.388;9.452;2022-08-19T07:52:38;19.80;99.90
42489;DHT22;28118;52.388;9.452;2022-08-19T07:55:08;20.10;99.90
42489;DHT22;28118;52.388;9.452;2022-08-19T07:57:55;20.10;99.90
42489;DHT22;28118;52.388;9.452;2022-08-19T08:00:22;20.20;99.90
42489;DHT22;28118;52.388;9.452;2022-08-19T08:02:50;19.90;99.90
42489;DHT22;28118;52.388;9.452;2022-08-19T08:05:21;19.90;99.90
42489;DHT22;28118;52.388;9.452;2022-08-19T08:08:10;19.90;99.90
42489;DHT22;28118;52.388;9.452;2022-08-19T08:11:16;20.20;99.90
42489;DHT22;28118;52.388;9.452;2022-08-19T08:13:46;20.10;99.90
42489;DHT22;28118;52.388;9.452;2022-08-19T08:16:26;20.10;99.90
42489;DHT22;28118;52.388;9.452;2022-08-19T08:18:57;20.10;99.90
42489;DHT22;28118;52.388;9.452;2022-08-19T08:21:24;20.50;99.90
42489;DHT22;28118;52.388;9.452;2022-08-19T08:23:51;20.60;99.90
42489;DHT22;28118;52.388;9.452;2022-08-19T08:26:22;20.60;99.90
42489;DHT22;28118;52.388;9.452;2022-08-19T08:28:49;20.70;99.90
42489;DHT22;28118;52.388;9.452;2022-08-19T08:31:16;20.70;99.90
42489;DHT22;28118;52.388;9.452;2022-08-19T08:33:46;20.50;99.90
42489;DHT22;28118;52.388;9.452;2022-08-19T08:36:13;20.30;99.90
42489;DHT22;28118;52.388;9.452;2022-08-19T08:38:41;20.70;99.90
42489;DHT22;28118;52.388;9.452;2022-08-19T08:43:59;21.00;99.90
42489;DHT22;28118;52.388;9.452;2022-08-19T08:46:48;21.00;99.90
42489;DHT22;28118;52.388;9.452;2022-08-19T08:49:26;21.10;99.90
42489;DHT22;28118;52.388;9.452;2022-08-19T08:54:43;20.80;99.90
42489;DHT22;28118;52.388;9.452;2022-08-19T09:00:15;20.90;99.90
42489;DHT22;28118;52.388;9.452;2022-08-19T09:02:43;21.00;99.90
42489;DHT22;28118;52.388;9.452;2022-08-19T09:05:18;20.90;99.90
42489;DHT22;28118;52.388;9.452;2022-08-19T09:10:20;21.00;99.90
42489;DHT22;28118;52.388;9.452;2022-08-19T09:16:00;21.40;99.90
42489;DHT22;28118;52.388;9.452;2022-08-19T09:18:25;21.40;99.90
42489;DHT22;28118;52.388;9.452;2022-08-19T09:20:55;21.30;99.90
42489;DHT22;28118;52.388;9.452;2022-08-19T09:23:23;21.60;99.90
42489;DHT22;28118;52.388;9.452;2022-08-19T09:25:52;21.80;99.90
42489;DHT22;28118;52.388;9.452;2022-08-19T09:28:20;21.90;99.90
42489;DHT22;28118;52.388;9.452;2022-08-19T09:30:52;21.90;99.90
42489;DHT22;28118;52.388;9.452;2022-08-19T09:33:19;21.80;99.90
42489;DHT22;28118;52.388;9.452;2022-08-19T09:35:46;21.80;99.90
42489;DHT22;28118;52.388;9.452;2022-08-19T09:38:20;21.90;99.90
42489;DHT22;28118;52.388;9.452;2022-08-19T09:40:46;21.70;99.90
42489;DHT22;28118;52.388;9.452;2022-08-19T09:43:13;21.60;99.90
42489;DHT22;28118;52.388;9.452;2022-08-19T09:45:40;21.70;99.90
42489;DHT22;28118;52.388;9.452;2022-08-19T09:48:07;21.70;99.90
42489;DHT22;28118;52.388;9.452;2022-08-19T09:50:37;21.70;99.90
42489;DHT22;28118;52.388;9.452;2022-08-19T09:53:17;21.90;99.90
42489;DHT22;28118;52.388;9.452;2022-08-19T09:55:44;22.30;99.90
42489;DHT22;28118;52.388;9.452;2022-08-19T09:58:11;22.40;99.90
42489;DHT22;28118;52.388;9.452;2022-08-19T10:00:38;22.60;99.90
42489;DHT22;28118;52.388;9.452;2022-08-19T10:03:05;22.50;99.90
42489;DHT22;28118;52.388;9.452;2022-08-19T10:05:32;22.30;99.90
42489;DHT22;28118;52.388;9.452;2022-08-19T10:08:26;22.40;99.90
42489;DHT22;28118;52.388;9.452;2022-08-19T10:10:54;22.80;99.90
42489;DHT22;28118;52.388;9.452;2022-08-19T10:13:25;23.10;99.90
42489;DHT22;28118;52.388;9.452;2022-08-19T10:15:54;23.10;99.90
42489;DHT22;28118;52.388;9.452;2022-08-19T10:18:23;23.40;99.90
42489;DHT22;28118;52.388;9.452;2022-08-19T10:20:52;23.70;99.90
42489;DHT22;28118;52.388;9.452;2022-08-19T10:23:20;23.50;99.90
42489;DHT22;28118;52.388;9.452;2022-08-19T10:25:48;23.30;99.90
42489;DHT22;28118;52.388;9.452;2022-08-19T10:28:15;23.20;99.90
42489;DHT22;28118;52.388;9.452;2022-08-19T10:30:45;23.30;99.90
42489;DHT22;28118;52.388;9.452;2022-08-19T10:33:11;23.30;99.90
42489;DHT22;28118;52.388;9.452;2022-08-19T10:35:40;23.30;99.90
42489;DHT22;28118;52.388;9.452;2022-08-19T10:38:23;23.30;99.90
42489;DHT22;28118;52.388;9.452;2022-08-19T10:40:58;23.50;99.90
42489;DHT22;28118;52.388;9.452;2022-08-19T10:43:33;23.50;99.90
42489;DHT22;28118;52.388;9.452;2022-08-19T10:46:02;23.60;99.90
42489;DHT22;28118;52.388;9.452;2022-08-19T10:48:35;23.50;99.90
42489;DHT22;28118;52.388;9.452;2022-08-19T10:51:02;23.60;99.90
42489;DHT22;28118;52.388;9.452;2022-08-19T10:53:50;23.30;99.90
42489;DHT22;28118;52.388;9.452;2022-08-19T10:56:17;23.30;99.90
42489;DHT22;28118;52.388;9.452;2022-08-19T10:59:04;23.20;99.90
42489;DHT22;28118;52.388;9.452;2022-08-19T11:01:32;23.10;99.90
42489;DHT22;28118;52.388;9.452;2022-08-19T11:04:02;23.20;99.90
42489;DHT22;28118;52.388;9.452;2022-08-19T11:06:31;23.40;99.90
42489;DHT22;28118;52.388;9.452;2022-08-19T11:08:58;23.60;99.90
42489;DHT22;28118;52.388;9.452;2022-08-19T11:11:26;23.60;99.90
42489;DHT22;28118;52.388;9.452;2022-08-19T11:13:54;23.60;99.90
42489;DHT22;28118;52.388;9.452;2022-08-19T11:16:23;23.70;99.90
42489;DHT22;28118;52.388;9.452;2022-08-19T11:18:54;23.80;99.90
42489;DHT22;28118;52.388;9.452;2022-08-19T11:21:34;23.70;99.80
42489;DHT22;28118;52.388;9.452;2022-08-19T11:24:05;23.90;99.80
42489;DHT22;28118;52.388;9.452;2022-08-19T11:26:34;23.90;99.70
42489;DHT22;28118;52.388;9.452;2022-08-19T11:29:02;23.90;99.20
42489;DHT22;28118;52.388;9.452;2022-08-19T11:31:31;24.10;99.30
42489;DHT22;28118;52.388;9.452;2022-08-19T11:34:00;24.20;99.40
42489;DHT22;28118;52.388;9.452;2022-08-19T11:36:28;24.30;99.10
42489;DHT22;28118;52.388;9.452;2022-08-19T11:38:55;24.40;99.30
42489;DHT22;28118;52.388;9.452;2022-08-19T11:41:23;24.60;99.30
42489;DHT22;28118;52.388;9.452;2022-08-19T11:43:51;24.80;99.30
42489;DHT22;28118;52.388;9.452;2022-08-19T11:46:19;25.00;99.90
42489;DHT22;28118;52.388;9.452;2022-08-19T11:48:46;25.40;98.90
42489;DHT22;28118;52.388;9.452;2022-08-19T11:51:17;25.40;98.50
42489;DHT22;28118;52.388;9.452;2022-08-19T11:53:45;25.30;97.90
42489;DHT22;28118;52.388;9.452;2022-08-19T11:56:12;25.30;97.80
42489;DHT22;28118;52.388;9.452;2022-08-19T11:58:39;25.40;98.20
42489;DHT22;28118;52.388;9.452;2022-08-19T12:01:10;25.80;98.20
42489;DHT22;28118;52.388;9.452;2022-08-19T12:03:38;26.30;96.90
42489;DHT22;28118;52.388;9.452;2022-08-19T12:06:10;26.10;96.90
42489;DHT22;28118;52.388;9.452;2022-08-19T12:08:43;26.20;96.90
42489;DHT22;28118;52.388;9.452;2022-08-19T12:11:11;26.60;97.50
42489;DHT22;28118;52.388;9.452;2022-08-19T12:13:38;26.90;96.20
42489;DHT22;28118;52.388;9.452;2022-08-19T12:16:10;26.70;95.40
42489;DHT22;28118;52.388;9.452;2022-08-19T12:18:39;26.80;95.10
42489;DHT22;28118;52.388;9.452;2022-08-19T12:21:08;26.50;96.00
42489;DHT22;28118;52.388;9.452;2022-08-19T12:23:37;26.30;95.10
42489;DHT22;28118;52.388;9.452;2022-08-19T12:26:04;26.40;95.40
42489;DHT22;28118;52.388;9.452;2022-08-19T12:28:31;27.30;95.60
42489;DHT22;28118;52.388;9.452;2022-08-19T12:30:57;27.40;94.80
42489;DHT22;28118;52.388;9.452;2022-08-19T12:33:24;27.70;93.70
42489;DHT22;28118;52.388;9.452;2022-08-19T12:35:54;27.60;93.20
42489;DHT22;28118;52.388;9.452;2022-08-19T12:38:21;27.80;93.10
42489;DHT22;28118;52.388;9.452;2022-08-19T12:40:51;27.60;92.60
42489;DHT22;28118;52.388;9.452;2022-08-19T12:43:24;27.60;92.30
42489;DHT22;28118;52.388;9.452;2022-08-19T12:45:51;27.80;92.20
42489;DHT22;28118;52.388;9.452;2022-08-19T12:48:17;27.80;91.70
42489;DHT22;28118;52.388;9.452;2022-08-19T12:51:05;27.80;91.40
42489;DHT22;28118;52.388;9.452;2022-08-19T12:53:32;27.70;91.00
42489;DHT22;28118;52.388;9.452;2022-08-19T12:56:00;28.00;90.90
42489;DHT22;28118;52.388;9.452;2022-08-19T12:58:27;28.00;90.10
42489;DHT22;28118;52.388;9.452;2022-08-19T13:00:54;28.10;89.40
42489;DHT22;28118;52.388;9.452;2022-08-19T13:03:21;28.10;89.30
42489;DHT22;28118;52.388;9.452;2022-08-19T13:05:55;28.40;87.40
42489;DHT22;28118;52.388;9.452;2022-08-19T13:08:22;27.90;88.20
42489;DHT22;28118;52.388;9.452;2022-08-19T13:10:49;28.10;87.90
42489;DHT22;28118;52.388;9.452;2022-08-19T13:13:17;28.20;87.90
42489;DHT22;28118;52.388;9.452;2022-08-19T13:15:44;28.50;86.60
42489;DHT22;28118;52.388;9.452;2022-08-19T13:18:12;28.90;85.60
42489;DHT22;28118;52.388;9.452;2022-08-19T13:20:39;29.20;85.60
42489;DHT22;28118;52.388;9.452;2022-08-19T13:23:08;29.30;84.50
42489;DHT22;28118;52.388;9.452;2022-08-19T13:25:34;29.60;84.90
42489;DHT22;28118;52.388;9.452;2022-08-19T13:28:03;30.10;84.10
42489;DHT22;28118;52.388;9.452;2022-08-19T13:30:29;29.60;82.40
42489;DHT22;28118;52.388;9.452;2022-08-19T13:33:14;29.60;83.10
42489;DHT22;28118;52.388;9.452;2022-08-19T13:35:49;29.50;81.90
42489;DHT22;28118;52.388;9.452;2022-08-19T13:38:20;29.20;82.70
42489;DHT22;28118;52.388;9.452;2022-08-19T13:40:49;29.40;82.10
42489;DHT22;28118;52.388;9.452;2022-08-19T13:43:17;29.40;81.30
42489;DHT22;28118;52.388;9.452;2022-08-19T13:45:53;29.60;80.60
42489;DHT22;28118;52.388;9.452;2022-08-19T13:48:23;29.80;80.50
42489;DHT22;28118;52.388;9.452;2022-08-19T13:50:50;29.40;80.00
42489;DHT22;28118;52.388;9.452;2022-08-19T13:53:17;29.20;79.60
42489;DHT22;28118;52.388;9.452;2022-08-19T13:55:44;29.70;78.90
42489;DHT22;28118;52.388;9.452;2022-08-19T13:58:12;29.40;79.40
42489;DHT22;28118;52.388;9.452;2022-08-19T14:00:42;29.60;78.60
42489;DHT22;28118;52.388;9.452;2022-08-19T14:03:09;29.40;77.40
42489;DHT22;28118;52.388;9.452;2022-08-19T14:05:37;29.20;77.90
42489;DHT22;28118;52.388;9.452;2022-08-19T14:08:04;29.60;77.00
42489;DHT22;28118;52.388;9.452;2022-08-19T14:10:31;29.80;76.90
42489;DHT22;28118;52.388;9.452;2022-08-19T14:13:01;29.30;77.20
42489;DHT22;28118;52.388;9.452;2022-08-19T14:15:29;29.90;76.00
42489;DHT22;28118;52.388;9.452;2022-08-19T14:17:56;30.50;76.50
42489;DHT22;28118;52.388;9.452;2022-08-19T14:20:23;30.10;75.20
42489;DHT22;28118;52.388;9.452;2022-08-19T14:22:52;30.50;73.40
42489;DHT22;28118;52.388;9.452;2022-08-19T14:25:23;30.10;73.40
42489;DHT22;28118;52.388;9.452;2022-08-19T14:27:51;30.90;73.00
42489;DHT22;28118;52.388;9.452;2022-08-19T14:30:22;30.90;72.50
42489;DHT22;28118;52.388;9.452;2022-08-19T14:32:51;31.00;72.60
42489;DHT22;28118;52.388;9.452;2022-08-19T14:35:18;31.30;72.20
42489;DHT22;28118;52.388;9.452;2022-08-19T14:37:45;30.90;72.10
42489;DHT22;28118;52.388;9.452;2022-08-19T14:40:18;31.20;71.60
42489;DHT22;28118;52.388;9.452;2022-08-19T14:42:47;31.40;71.20
42489;DHT22;28118;52.388;9.452;2022-08-19T14:45:14;31.50;70.70
42489;DHT22;28118;52.388;9.452;2022-08-19T14:47:41;31.80;69.90
42489;DHT22;28118;52.388;9.452;2022-08-19T14:50:11;31.50;69.20
42489;DHT22;28118;52.388;9.452;2022-08-19T14:52:45;31.50;68.50
42489;DHT22;28118;52.388;9.452;2022-08-19T14:55:15;31.70;68.50
42489;DHT22;28118;52.388;9.452;2022-08-19T14:57:42;31.50;67.70
42489;DHT22;28118;52.388;9.452;2022-08-19T15:00:10;31.90;67.10
42489;DHT22;28118;52.388;9.452;2022-08-19T15:02:41;34.40;65.60
42489;DHT22;28118;52.388;9.452;2022-08-19T15:05:11;37.90;60.20
42489;DHT22;28118;52.388;9.452;2022-08-19T15:07:40;38.60;56.90
42489;DHT22;28118;52.388;9.452;2022-08-19T15:10:08;38.60;56.40
42489;DHT22;28118;52.388;9.452;2022-08-19T15:12:36;38.70;54.70
42489;DHT22;28118;52.388;9.452;2022-08-19T15:15:05;40.20;52.50
42489;DHT22;28118;52.388;9.452;2022-08-19T15:17:32;40.40;51.10
42489;DHT22;28118;52.388;9.452;2022-08-19T15:20:20;40.80;50.20
42489;DHT22;28118;52.388;9.452;2022-08-19T15:22:49;40.10;49.60
42489;DHT22;28118;52.388;9.452;2022-08-19T15:25:18;35.50;52.90
42489;DHT22;28118;52.388;9.452;2022-08-19T15:27:45;32.90;56.00
42489;DHT22;28118;52.388;9.452;2022-08-19T15:30:20;30.30;59.00
42489;DHT22;28118;52.388;9.452;2022-08-19T15:32:47;29.30;61.30
42489;DHT22;28118;52.388;9.452;2022-08-19T15:35:15;29.20;61.70
42489;DHT22;28118;52.388;9.452;2022-08-19T15:37:47;29.10;62.50
42489;DHT22;28118;52.388;9.452;2022-08-19T15:40:14;29.20;63.00
42489;DHT22;28118;52.388;9.452;2022-08-19T15:42:41;29.00;62.90
42489;DHT22;28118;52.388;9.452;2022-08-19T15:45:10;28.90;63.20
42489;DHT22;28118;52.388;9.452;2022-08-19T15:47:38;28.80;64.20
42489;DHT22;28118;52.388;9.452;2022-08-19T15:50:13;28.90;63.80
42489;DHT22;28118;52.388;9.452;2022-08-19T15:52:47;28.90;64.20
42489;DHT22;28118;52.388;9.452;2022-08-19T15:55:20;29.00;63.90
42489;DHT22;28118;52.388;9.452;2022-08-19T15:58:04;28.90;64.40
42489;DHT22;28118;52.388;9.452;2022-08-19T16:00:59;29.10;64.20
42489;DHT22;28118;52.388;9.452;2022-08-19T16:03:47;28.80;63.90